Time;durP1;ratioP1;P1;durP2;ratioP2;P2;SDS_P1;SDS_P2;PMS_P1;PMS_P2;Temp;Humidity;BMP_temperature;BMP_pressure;BME280_temperature;BME280_humidity;BME280_pressure;Samples;Min_cycle;Max_cycle;Signal;HPM_P1;HPM_P2
2021/03/12 00:01:05;;;;;;;10.38;8.30;;;;;;;-0.18;70.09;98385.37;1767548;78;21166;-57
2021/03/12 00:03:36;;;;;;;10.40;8.55;;;;;;;-0.17;70.28;98372.20;1755522;80;21072;-58
2021/03/12 00:06:09;;;;;;;11.48;8.08;;;;;;;-0.15;70.44;98368.97;1777944;78;21359;-57
2021/03/12 00:08:44;;;;;;;11.55;7.22;;;;;;;-0.14;70.69;98368.02;1774443;80;21151;-58
2021/03/12 00:11:11;;;;;;;10.32;7.78;;;;;;;-0.14;70.97;98368.49;1755494;78;20894;-57
2021/03/12 00:13:39;;;;;;;10.13;7.67;;;;;;;-0.14;71.23;98358.88;1755328;79;21009;-59
2021/03/12 00:16:07;;;;;;;11.18;8.30;;;;;;;-0.13;71.19;98374.08;1721826;82;21119;-58
2021/03/12 00:18:39;;;;;;;10.32;8.40;;;;;;;-0.12;71.86;98387.48;1730370;81;22275;-58
2021/03/12 00:21:07;;;;;;;10.55;8.53;;;;;;;-0.13;71.91;98353.97;1716387;82;21570;-59
2021/03/12 00:23:34;;;;;;;9.08;7.22;;;;;;;-0.12;72.19;98345.66;1755337;80;21155;-59
2021/03/12 00:26:03;;;;;;;11.57;8.98;;;;;;;-0.15;72.96;98328.92;1755487;80;21119;-57
2021/03/12 00:28:32;;;;;;;12.58;8.33;;;;;;;-0.17;73.23;98342.13;1768520;78;21151;-57
2021/03/12 00:31:00;;;;;;;9.70;8.20;;;;;;;-0.16;73.57;98328.59;1777375;78;21264;-59
2021/03/12 00:33:28;;;;;;;12.03;9.05;;;;;;;-0.14;73.57;98315.73;1774019;78;21142;-58
2021/03/12 00:35:57;;;;;;;11.63;8.58;;;;;;;-0.13;73.82;98314.76;1758240;80;21016;-59
2021/03/12 00:38:25;;;;;;;10.60;8.55;;;;;;;-0.10;74.22;98301.42;1772045;78;21186;-59
2021/03/12 00:40:57;;;;;;;11.85;8.43;;;;;;;-0.08;74.67;98335.30;1779870;78;21135;-58
2021/03/12 00:43:25;;;;;;;11.30;9.13;;;;;;;-0.06;74.91;98287.63;1755442;80;21321;-57
2021/03/12 00:46:00;;;;;;;12.07;8.55;;;;;;;-0.05;75.35;98272.27;1758563;78;21056;-57
2021/03/12 00:48:28;;;;;;;14.47;9.08;;;;;;;-0.06;75.99;98276.69;1755469;79;21115;-60
2021/03/12 00:50:56;;;;;;;11.20;9.03;;;;;;;-0.05;76.32;98291.40;1781250;78;21123;-58
2021/03/12 00:53:25;;;;;;;12.07;9.28;;;;;;;-0.04;77.26;98311.84;1754233;80;21171;-59
2021/03/12 00:55:53;;;;;;;13.25;9.20;;;;;;;-0.06;77.75;98251.02;1755354;78;21429;-59
2021/03/12 00:58:22;;;;;;;13.78;9.18;;;;;;;-0.09;78.21;98253.42;1755298;80;20945;-59
2021/03/12 01:00:51;;;;;;;14.60;9.93;;;;;;;-0.08;78.64;98243.80;1786536;77;21074;-58
2021/03/12 01:03:20;;;;;;;12.07;8.43;;;;;;;-0.11;79.47;98234.91;1771178;77;20919;-57
2021/03/12 01:05:49;;;;;;;12.03;9.58;;;;;;;-0.15;80.19;98236.95;1784674;77;21070;-59
2021/03/12 01:08:19;;;;;;;17.90;8.68;;;;;;;-0.17;80.60;98259.80;1802377;77;21380;-58
2021/03/12 01:10:46;;;;;;;14.55;9.80;;;;;;;-0.17;81.12;98261.57;1785261;77;21124;-59
2021/03/12 01:13:14;;;;;;;16.30;9.00;;;;;;;-0.17;81.95;98260.27;1775361;77;21103;-58
2021/03/12 01:15:42;;;;;;;14.03;9.33;;;;;;;-0.16;81.92;98253.58;1789166;77;20918;-60
2021/03/12 01:18:11;;;;;;;15.70;9.50;;;;;;;-0.18;82.38;98271.19;1809307;79;21073;-60
2021/03/12 01:20:40;;;;;;;11.43;8.65;;;;;;;-0.20;83.18;98247.45;1780841;77;21445;-60
2021/03/12 01:23:10;;;;;;;11.95;9.48;;;;;;;-0.21;83.82;98251.84;1785167;77;21085;-59
2021/03/12 01:25:43;;;;;;;13.90;9.80;;;;;;;-0.20;83.95;98252.69;1795243;77;21018;-59
2021/03/12 01:28:12;;;;;;;10.10;9.08;;;;;;;-0.21;84.09;98247.92;1789717;79;21061;-59
2021/03/12 01:30:42;;;;;;;9.95;8.85;;;;;;;-0.23;84.91;98238.56;1781469;79;20994;-59
2021/03/12 01:33:33;;;;;;;11.15;9.23;;;;;;;-0.28;86.16;98231.13;1821230;78;28239;-58
2021/03/12 01:36:03;;;;;;;11.95;9.88;;;;;;;-0.37;86.64;98250.70;1774150;79;21030;-59
2021/03/12 01:38:32;;;;;;;12.28;9.10;;;;;;;-0.42;86.87;98230.68;1796138;79;21359;-59
2021/03/12 01:41:01;;;;;;;14.45;8.58;;;;;;;-0.47;86.88;98215.88;1784732;79;21004;-59
2021/03/12 01:43:31;;;;;;;11.08;8.50;;;;;;;-0.51;87.08;98217.09;1784728;79;20949;-59
2021/03/12 01:45:59;;;;;;;10.50;8.43;;;;;;;-0.55;86.91;98210.01;1807456;79;21060;-60
2021/03/12 01:48:27;;;;;;;12.15;8.40;;;;;;;-0.55;86.85;98203.95;1799330;79;20962;-61
2021/03/12 01:51:00;;;;;;;11.83;8.50;;;;;;;-0.56;86.58;98226.63;1783684;79;21411;-58
2021/03/12 01:53:27;;;;;;;10.32;8.78;;;;;;;-0.57;86.02;98228.08;1784688;79;21001;-58
2021/03/12 01:55:56;;;;;;;11.15;8.58;;;;;;;-0.55;85.54;98206.56;1806439;79;21022;-62
2021/03/12 01:58:26;;;;;;;13.68;8.48;;;;;;;-0.55;85.25;98202.64;1803785;79;20991;-60
2021/03/12 02:00:55;;;;;;;12.82;8.43;;;;;;;-0.54;85.06;98210.81;1804932;79;21568;-60
2021/03/12 02:03:44;;;;;;;9.45;7.55;;;;;;;-0.49;84.88;98215.99;1830547;78;26321;-59
2021/03/12 02:06:13;;;;;;;9.75;8.75;;;;;;;-0.52;84.45;98190.62;1765157;79;20988;-58
2021/03/12 02:08:42;;;;;;;13.43;9.38;;;;;;;-0.55;84.38;98174.74;1777084;79;21133;-59
2021/03/12 02:11:13;;;;;;;12.60;9.58;;;;;;;-0.59;85.05;98165.50;1776291;79;20945;-59
2021/03/12 02:14:09;;;;;;;11.48;9.65;;;;;;;-0.64;86.12;98155.93;1777002;79;21057;-58
2021/03/12 02:16:48;;;;;;;11.78;9.05;;;;;;;-0.74;87.73;98162.91;1779302;79;21033;-60
2021/03/12 02:20:04;;;;;;;14.95;8.83;;;;;;;-0.86;89.24;98157.44;1770760;79;20985;-58
2021/03/12 02:22:34;;;;;;;11.78;8.83;;;;;;;-0.94;89.90;98158.56;1719560;79;21295;-59
2021/03/12 02:25:09;;;;;;;14.25;9.90;;;;;;;-1.03;89.79;98178.44;1789485;79;21065;-57
2021/03/12 02:27:45;;;;;;;10.80;8.43;;;;;;;-1.07;89.85;98181.44;1779285;79;21052;-59
2021/03/12 02:30:14;;;;;;;11.30;8.13;;;;;;;-1.09;89.75;98187.24;1758224;79;20921;-58
2021/03/12 02:32:45;;;;;;;10.98;8.75;;;;;;;-1.09;89.51;98180.72;1777836;79;20914;-58
2021/03/12 02:35:19;;;;;;;11.70;9.53;;;;;;;-1.07;89.24;98169.70;1775998;79;21368;-58
2021/03/12 02:37:49;;;;;;;14.95;9.33;;;;;;;-1.08;88.51;98170.64;1789678;79;20992;-60
2021/03/12 02:40:18;;;;;;;10.08;8.15;;;;;;;-1.08;88.27;98161.03;1769217;79;21014;-60
2021/03/12 02:42:57;;;;;;;12.25;8.83;;;;;;;-1.01;88.17;98146.50;1841634;78;26453;-58
2021/03/12 02:45:25;;;;;;;11.93;8.45;;;;;;;-1.02;87.79;98151.86;1790521;79;20994;-60
2021/03/12 02:47:55;;;;;;;10.25;8.53;;;;;;;-1.00;87.38;98163.83;1748484;80;21366;-58
2021/03/12 02:50:24;;;;;;;13.22;9.03;;;;;;;-0.98;86.47;98156.69;1727486;82;21068;-59
2021/03/12 02:52:53;;;;;;;10.90;8.73;;;;;;;-0.97;86.10;98194.06;1773697;80;21018;-58
2021/03/12 02:55:23;;;;;;;9.80;7.97;;;;;;;-0.95;85.48;98179.09;1758449;81;21001;-58
2021/03/12 02:57:54;;;;;;;12.65;9.43;;;;;;;-0.91;84.90;98170.86;1747245;82;21662;-59
2021/03/12 03:00:23;;;;;;;14.33;9.50;;;;;;;-0.87;84.56;98174.05;1780851;80;21207;-59
2021/03/12 03:03:09;;;;;;;9.80;7.95;;;;;;;-0.86;84.07;98178.33;1692882;80;25078;-59
2021/03/12 03:05:41;;;;;;;11.25;9.00;;;;;;;-0.84;83.64;98192.07;1758969;80;21609;-59
2021/03/12 03:08:11;;;;;;;10.38;8.30;;;;;;;-0.81;83.55;98204.88;1760019;81;21549;-59
2021/03/12 03:10:39;;;;;;;13.55;9.35;;;;;;;-0.80;83.99;98192.98;1740176;82;21579;-60
2021/03/12 03:13:08;;;;;;;11.48;8.50;;;;;;;-0.78;86.92;98204.59;1749892;80;21271;-59
2021/03/12 03:15:36;;;;;;;12.00;9.25;;;;;;;-0.76;87.84;98181.80;1749851;82;21585;-59
2021/03/12 03:18:06;;;;;;;10.82;9.18;;;;;;;-0.75;88.28;98187.36;1767101;80;21132;-58
2021/03/12 03:20:35;;;;;;;9.53;7.83;;;;;;;-0.74;87.53;98236.86;1758772;80;21210;-59
2021/03/12 03:23:03;;;;;;;11.68;8.70;;;;;;;-0.73;87.24;98199.83;1731825;80;20938;-58
2021/03/12 03:25:32;;;;;;;12.25;9.13;;;;;;;-0.72;86.92;98202.77;1759086;80;20974;-58
2021/03/12 03:28:04;;;;;;;12.03;9.90;;;;;;;-0.72;86.60;98189.71;1765487;80;20934;-59
2021/03/12 03:30:31;;;;;;;12.20;9.45;;;;;;;-0.73;86.28;98195.91;1738165;81;21126;-58
2021/03/12 03:33:13;;;;;;;11.57;9.35;;;;;;;-0.69;86.31;98188.14;1820048;78;26953;-59
2021/03/12 03:35:41;;;;;;;19.00;9.63;;;;;;;-0.75;86.46;98175.12;1803289;79;20983;-58
2021/03/12 03:38:09;;;;;;;11.68;9.60;;;;;;;-0.78;87.40;98204.59;1801681;78;21367;-59
2021/03/12 03:40:37;;;;;;;17.12;10.53;;;;;;;-0.85;89.17;98183.88;1749413;81;21037;-58
2021/03/12 03:43:06;;;;;;;13.10;9.60;;;;;;;-0.96;90.98;98199.14;1772907;80;20990;-59
2021/03/12 03:45:34;;;;;;;13.58;9.93;;;;;;;-1.04;92.55;98186.41;1755151;80;21167;-59
2021/03/12 03:48:08;;;;;;;12.03;9.55;;;;;;;-1.11;93.89;98221.31;1765467;80;20954;-58
2021/03/12 03:50:38;;;;;;;12.05;8.95;;;;;;;-1.18;95.10;98216.73;1707895;82;21445;-58
2021/03/12 03:53:06;;;;;;;12.47;10.08;;;;;;;-1.23;96.46;98174.55;1751927;79;21566;-59
2021/03/12 03:55:34;;;;;;;13.43;10.38;;;;;;;-1.30;97.33;98192.48;1739130;79;21104;-59
2021/03/12 03:58:03;;;;;;;13.95;10.72;;;;;;;-1.38;98.39;98168.80;1774936;79;21063;-58
2021/03/12 04:00:32;;;;;;;13.65;10.48;;;;;;;-1.42;99.23;98174.77;1776034;79;21157;-58
2021/03/12 04:03:01;;;;;;;14.47;10.93;;;;;;;-1.45;100.00;98163.28;1745203;80;21123;-59
2021/03/12 04:05:31;;;;;;;12.47;10.35;;;;;;;-1.46;100.00;98193.42;1749890;80;21055;-58
2021/03/12 04:08:00;;;;;;;12.47;10.85;;;;;;;-1.45;100.00;98193.28;1742308;80;21062;-58
2021/03/12 04:10:29;;;;;;;15.50;10.25;;;;;;;-1.48;100.00;98158.31;1766629;79;21077;-58
2021/03/12 04:12:57;;;;;;;12.50;10.48;;;;;;;-1.51;100.00;98149.94;1751145;79;20978;-59
2021/03/12 04:15:25;;;;;;;11.40;10.05;;;;;;;-1.53;100.00;98168.30;1718466;80;21280;-58
2021/03/12 04:17:54;;;;;;;11.73;9.93;;;;;;;-1.54;100.00;98156.70;1729062;81;21498;-58
2021/03/12 04:20:22;;;;;;;14.38;10.25;;;;;;;-1.56;100.00;98134.64;1747378;80;21066;-59
2021/03/12 04:22:51;;;;;;;13.35;10.93;;;;;;;-1.56;100.00;98131.20;1713741;81;20950;-58
2021/03/12 04:25:21;;;;;;;14.50;10.65;;;;;;;-1.57;100.00;98139.53;1761814;79;21047;-59
2021/03/12 04:27:49;;;;;;;11.48;10.25;;;;;;;-1.59;100.00;98127.06;1714477;82;21209;-59
2021/03/12 04:30:18;;;;;;;12.03;8.98;;;;;;;-1.60;100.00;98130.65;1703190;82;21060;-57
2021/03/12 04:32:46;;;;;;;13.40;10.28;;;;;;;-1.59;100.00;98117.94;1736504;81;21148;-58
2021/03/12 04:35:14;;;;;;;15.55;11.25;;;;;;;-1.61;100.00;98133.36;1726222;81;20961;-59
2021/03/12 04:37:42;;;;;;;13.00;10.80;;;;;;;-1.62;100.00;98139.09;1740598;81;21116;-59
2021/03/12 04:40:12;;;;;;;12.60;10.23;;;;;;;-1.61;100.00;98144.62;1710408;81;21377;-58
2021/03/12 04:42:43;;;;;;;13.43;10.60;;;;;;;-1.60;100.00;98142.86;1710089;82;21144;-59
2021/03/12 04:45:12;;;;;;;12.47;10.35;;;;;;;-1.63;100.00;98104.82;1744890;81;21560;-58
2021/03/12 04:47:42;;;;;;;12.65;9.28;;;;;;;-1.65;100.00;98109.34;1729068;81;21190;-58
2021/03/12 04:50:10;;;;;;;12.37;10.38;;;;;;;-1.62;100.00;98110.39;1728898;80;21235;-58
2021/03/12 04:52:39;;;;;;;12.47;11.00;;;;;;;-1.60;100.00;98120.69;1717382;81;21369;-58
2021/03/12 04:55:09;;;;;;;16.80;12.88;;;;;;;-1.59;100.00;98131.48;1725793;81;20997;-59
2021/03/12 04:57:36;;;;;;;14.28;11.30;;;;;;;-1.58;100.00;98120.91;1725983;81;21558;-58
2021/03/12 05:00:07;;;;;;;12.55;10.28;;;;;;;-1.57;100.00;98120.44;1727780;81;21606;-59
2021/03/12 05:02:37;;;;;;;14.55;12.07;;;;;;;-1.57;100.00;98099.11;1743489;81;21156;-58
2021/03/12 05:05:11;;;;;;;12.80;11.50;;;;;;;-1.58;100.00;98097.44;1734348;81;21363;-60
2021/03/12 05:07:39;;;;;;;13.38;11.85;;;;;;;-1.56;100.00;98098.13;1735719;81;20983;-58
2021/03/12 05:10:18;;;;;;;14.73;12.30;;;;;;;-1.49;100.00;98086.72;1827547;78;27249;-62
2021/03/12 05:12:46;;;;;;;15.85;12.45;;;;;;;-1.51;100.00;98087.34;1792418;79;20985;-58
2021/03/12 05:15:16;;;;;;;13.70;11.65;;;;;;;-1.48;100.00;98087.88;1788121;79;21569;-61
2021/03/12 05:17:45;;;;;;;12.53;10.38;;;;;;;-1.48;100.00;98087.88;1771074;79;20941;-61
2021/03/12 05:20:14;;;;;;;14.20;11.48;;;;;;;-1.48;100.00;98087.88;1790037;79;21611;-61
2021/03/12 05:22:42;;;;;;;13.85;11.00;;;;;;;-1.46;100.00;98078.64;1791091;79;21012;-59
2021/03/12 05:25:10;;;;;;;13.70;11.45;;;;;;;-1.46;100.00;98076.03;1775166;79;21013;-61
2021/03/12 05:27:38;;;;;;;14.70;12.82;;;;;;;-1.45;100.00;98082.41;1770587;79;21958;-61
2021/03/12 05:30:07;;;;;;;17.92;12.80;;;;;;;-1.43;100.00;98088.80;1758027;80;21016;-60
2021/03/12 05:32:34;;;;;;;15.43;12.65;;;;;;;-1.43;100.00;98072.67;1780117;79;20922;-59
2021/03/12 05:35:03;;;;;;;15.43;11.90;;;;;;;-1.41;100.00;98093.42;1777181;79;21021;-61
2021/03/12 05:37:32;;;;;;;16.20;12.03;;;;;;;-1.39;100.00;98074.55;1792537;79;21167;-61
2021/03/12 05:40:00;;;;;;;12.90;10.80;;;;;;;-1.38;100.00;98082.23;1792309;79;21467;-59
2021/03/12 05:42:27;;;;;;;13.15;10.55;;;;;;;-1.36;100.00;98067.77;1785444;79;21069;-59
2021/03/12 05:44:57;;;;;;;14.40;12.00;;;;;;;-1.38;100.00;98073.11;1784330;79;20889;-61
2021/03/12 05:47:25;;;;;;;13.95;11.78;;;;;;;-1.39;100.00;98071.94;1738238;79;21044;-61
2021/03/12 05:49:54;;;;;;;11.43;10.20;;;;;;;-1.37;100.00;98090.89;1788061;79;21236;-61
2021/03/12 05:52:22;;;;;;;12.13;10.82;;;;;;;-1.37;100.00;98079.16;1803494;79;21355;-59
2021/03/12 05:54:50;;;;;;;19.00;13.40;;;;;;;-1.35;100.00;98079.84;1778922;79;21039;-63
2021/03/12 05:57:19;;;;;;;15.00;11.83;;;;;;;-1.34;100.00;98053.64;1775416;79;21174;-64
2021/03/12 05:59:47;;;;;;;15.53;11.63;;;;;;;-1.33;100.00;98076.15;1784201;79;20884;-60
2021/03/12 06:02:15;;;;;;;14.13;11.67;;;;;;;-1.30;100.00;98071.98;1768202;79;21432;-60
2021/03/12 06:04:46;;;;;;;14.35;12.53;;;;;;;-1.27;100.00;98080.02;1792607;79;21191;-66
2021/03/12 06:07:14;;;;;;;17.70;11.83;;;;;;;-1.25;100.00;98078.10;1805504;79;21518;-59
2021/03/12 06:09:45;;;;;;;18.95;13.78;;;;;;;-1.23;100.00;98051.90;1763035;79;21025;-62
2021/03/12 06:12:13;;;;;;;16.57;12.82;;;;;;;-1.21;100.00;98058.64;1794521;79;20985;-60
2021/03/12 06:14:54;;;;;;;17.20;14.00;;;;;;;-1.17;100.00;98061.82;1807817;77;21191;-60
2021/03/12 06:17:41;;;;;;;15.90;12.10;;;;;;;-1.14;100.00;98085.02;1794745;78;21356;-58
2021/03/12 06:20:15;;;;;;;15.13;12.95;;;;;;;-1.11;100.00;98076.46;1796732;79;20962;-59
2021/03/12 06:22:56;;;;;;;17.32;14.00;;;;;;;-1.08;100.00;98063.63;1804819;78;21116;-60
2021/03/12 06:25:29;;;;;;;15.93;14.23;;;;;;;-1.05;100.00;98072.50;1804271;78;21031;-60
2021/03/12 06:28:17;;;;;;;18.23;13.87;;;;;;;-1.03;100.00;98078.41;1807157;78;21187;-60
2021/03/12 06:31:26;;;;;;;15.30;12.88;;;;;;;-1.00;100.00;98080.29;1796115;77;21245;-59
2021/03/12 06:34:15;;;;;;;16.10;12.98;;;;;;;-0.96;100.00;98080.36;1793473;79;21230;-61
2021/03/12 06:36:55;;;;;;;17.57;14.20;;;;;;;-0.89;100.00;98085.42;1805024;78;26862;-59
2021/03/12 06:39:36;;;;;;;19.30;15.13;;;;;;;-0.92;100.00;98082.23;1776746;79;21017;-59
2021/03/12 06:42:13;;;;;;;15.18;12.60;;;;;;;-0.88;100.00;98084.44;1776338;79;21204;-60
2021/03/12 06:44:42;;;;;;;17.30;13.68;;;;;;;-0.84;100.00;98083.70;1797374;77;21021;-60
2021/03/12 06:47:22;;;;;;;16.00;13.70;;;;;;;-0.79;100.00;98085.44;1826231;77;26762;-59
2021/03/12 06:49:59;;;;;;;16.97;13.85;;;;;;;-0.81;100.00;98067.27;1800382;79;21022;-59
2021/03/12 06:52:35;;;;;;;21.87;14.03;;;;;;;-0.82;100.00;98070.03;1815569;79;21157;-60
2021/03/12 06:55:07;;;;;;;19.57;14.33;;;;;;;-0.80;100.00;98078.55;1815584;79;21494;-58
2021/03/12 06:57:36;;;;;;;16.97;13.70;;;;;;;-0.73;100.00;98079.70;1802377;79;21005;-61
2021/03/12 07:00:11;;;;;;;15.80;14.00;;;;;;;-0.63;100.00;98073.50;1796994;78;20993;-61
2021/03/12 07:02:40;;;;;;;14.70;12.40;;;;;;;-0.57;100.00;98068.73;1793692;79;21602;-61
2021/03/12 07:05:13;;;;;;;17.50;14.55;;;;;;;-0.54;100.00;98096.70;1793083;79;21245;-61
2021/03/12 07:07:42;;;;;;;19.73;16.48;;;;;;;-0.55;100.00;98078.08;1808157;79;21171;-61
2021/03/12 07:10:34;;;;;;;17.45;14.95;;;;;;;-0.49;100.00;98085.36;1832214;78;26768;-61
2021/03/12 07:13:05;;;;;;;16.82;14.75;;;;;;;-0.49;100.00;98083.22;1792980;79;21033;-61
2021/03/12 07:15:34;;;;;;;15.93;14.13;;;;;;;-0.47;100.00;98077.41;1752006;79;21386;-61
2021/03/12 07:18:07;;;;;;;21.80;14.20;;;;;;;-0.46;100.00;98060.27;1793376;79;21037;-62
2021/03/12 07:20:36;;;;;;;16.90;13.68;;;;;;;-0.45;100.00;98055.41;1797641;79;21669;-64
2021/03/12 07:23:06;;;;;;;19.07;14.25;;;;;;;-0.42;100.00;98060.84;1780627;78;21024;-62
2021/03/12 07:25:36;;;;;;;18.07;14.28;;;;;;;-0.41;100.00;98065.92;1797587;79;21214;-61
2021/03/12 07:28:05;;;;;;;22.22;15.58;;;;;;;-0.41;99.89;98055.94;1799391;79;21395;-61
2021/03/12 07:30:46;;;;;;;19.90;15.70;;;;;;;-0.37;99.67;98064.70;1812246;78;27694;-61
2021/03/12 07:33:16;;;;;;;22.22;16.40;;;;;;;-0.39;99.72;98079.66;1776705;79;21009;-61
2021/03/12 07:35:46;;;;;;;19.05;14.38;;;;;;;-0.33;99.71;98084.83;1778571;79;22273;-62
2021/03/12 07:38:35;;;;;;;19.92;14.98;;;;;;;-0.31;99.36;98083.73;1786596;79;21036;-62
2021/03/12 07:41:08;;;;;;;18.20;13.85;;;;;;;-0.28;99.22;98086.08;1778558;79;20954;-60
2021/03/12 07:43:56;;;;;;;18.42;14.10;;;;;;;-0.22;98.83;98084.72;1808444;77;28157;-61
2021/03/12 07:46:34;;;;;;;20.92;16.77;;;;;;;-0.24;98.77;98094.48;1775838;79;20997;-62
2021/03/12 07:49:29;;;;;;;20.35;16.27;;;;;;;-0.22;98.70;98097.78;1778116;79;21361;-63
2021/03/12 07:52:10;;;;;;;19.70;15.80;;;;;;;-0.20;98.54;98082.78;1774197;79;20989;-62
2021/03/12 07:54:44;;;;;;;18.77;14.75;;;;;;;-0.17;98.46;98082.52;1763885;79;21008;-62
2021/03/12 07:57:40;;;;;;;20.77;15.32;;;;;;;-0.14;98.45;98081.77;1789087;79;22276;-63
2021/03/12 08:00:14;;;;;;;22.87;16.82;;;;;;;-0.11;98.40;98091.12;1774541;79;20926;-63
2021/03/12 08:02:58;;;;;;;19.52;15.40;;;;;;;-0.11;98.34;98073.66;1774344;78;21215;-61
2021/03/12 08:05:41;;;;;;;19.73;15.20;;;;;;;-0.09;98.34;98084.80;1781152;77;20996;-63
2021/03/12 08:08:32;;;;;;;20.02;16.12;;;;;;;-0.08;98.31;98076.48;1804628;79;21124;-63
2021/03/12 08:11:28;;;;;;;21.05;16.40;;;;;;;-0.08;98.41;98085.12;1786965;78;21119;-63
2021/03/12 08:14:19;;;;;;;20.35;15.30;;;;;;;-0.06;98.37;98086.31;1776696;78;21167;-65
2021/03/12 08:17:04;;;;;;;18.70;14.13;;;;;;;-0.04;98.40;98072.61;1777966;79;21342;-63
2021/03/12 08:19:54;;;;;;;18.87;15.30;;;;;;;0.03;98.39;98072.90;1816973;77;28202;-62
2021/03/12 08:22:35;;;;;;;18.90;14.80;;;;;;;-0.01;98.43;98077.09;1791780;79;20973;-65
2021/03/12 08:25:08;;;;;;;20.48;15.00;;;;;;;0.03;98.41;98078.13;1786151;79;21370;-64
2021/03/12 08:27:48;;;;;;;20.12;15.55;;;;;;;0.05;98.47;98074.89;1787805;79;20989;-64
2021/03/12 08:30:36;;;;;;;20.92;15.93;;;;;;;0.06;98.40;98067.37;1794012;79;21028;-62
2021/03/12 08:33:12;;;;;;;18.65;15.28;;;;;;;0.05;98.47;98080.95;1793312;79;21013;-61
2021/03/12 08:35:44;;;;;;;16.87;14.68;;;;;;;0.05;98.50;98103.17;1784685;79;27173;-61
2021/03/12 08:38:35;;;;;;;17.52;14.18;;;;;;;0.06;98.57;98098.75;1717596;82;21399;-61
2021/03/12 08:41:22;;;;;;;16.37;13.20;;;;;;;0.07;98.59;98088.64;1745467;80;21025;-61
2021/03/12 08:43:53;;;;;;;19.02;15.90;;;;;;;0.11;98.62;98096.54;1720681;80;21009;-61
2021/03/12 08:46:39;;;;;;;17.65;13.35;;;;;;;0.13;98.65;98088.09;1772255;79;21055;-64
2021/03/12 08:49:08;;;;;;;17.57;14.55;;;;;;;0.12;98.73;98075.50;1752447;80;20943;-62
2021/03/12 08:51:37;;;;;;;17.90;15.32;;;;;;;0.10;98.94;98073.98;1736249;81;21211;-65
2021/03/12 08:54:12;;;;;;;21.87;17.45;;;;;;;0.12;99.51;98071.58;1750083;78;21558;-61
2021/03/12 08:56:42;;;;;;;20.05;15.45;;;;;;;0.16;99.75;98066.91;1752546;80;21165;-62
2021/03/12 08:59:10;;;;;;;21.70;15.50;;;;;;;0.16;100.00;98060.37;1752792;80;21183;-62
2021/03/12 09:01:58;;;;;;;20.35;14.95;;;;;;;0.19;100.00;98074.45;1752428;80;21122;-61
2021/03/12 09:04:43;;;;;;;19.70;17.62;;;;;;;0.23;100.00;98071.91;1801961;78;28527;-61
2021/03/12 09:07:14;;;;;;;17.82;15.20;;;;;;;0.20;100.00;98076.11;1730101;80;20938;-63
2021/03/12 09:10:00;;;;;;;21.27;17.57;;;;;;;0.24;100.00;98081.39;1726413;81;21219;-63
2021/03/12 09:12:32;;;;;;;30.08;19.65;;;;;;;0.25;100.00;98079.96;1699420;81;21032;-61
2021/03/12 09:15:06;;;;;;;22.90;17.48;;;;;;;0.26;100.00;98074.25;1730433;81;20997;-62
2021/03/12 09:17:37;;;;;;;25.23;17.42;;;;;;;0.31;100.00;98077.27;1736950;81;21541;-62
2021/03/12 09:20:09;;;;;;;23.62;16.70;;;;;;;0.32;100.00;98086.75;1755576;81;21020;-63
2021/03/12 09:22:38;;;;;;;25.35;14.85;;;;;;;0.32;100.00;98079.73;1742061;81;21383;-61
2021/03/12 09:25:07;;;;;;;23.38;16.82;;;;;;;0.33;100.00;98070.10;1722052;81;21010;-63
2021/03/12 09:28:13;;;;;;;18.95;16.35;;;;;;;0.38;100.00;98061.34;1806408;78;28653;-61
2021/03/12 09:30:52;;;;;;;20.05;16.95;;;;;;;0.36;100.00;98065.42;1777989;78;20981;-62
2021/03/12 09:33:46;;;;;;;19.77;16.15;;;;;;;0.48;100.00;98062.15;1831586;78;28757;-63
2021/03/12 09:36:38;;;;;;;18.30;15.13;;;;;;;0.45;100.00;98055.41;1792458;78;21045;-61
2021/03/12 09:39:19;;;;;;;17.67;15.38;;;;;;;0.47;100.00;98061.31;1806313;78;21358;-61
2021/03/12 09:41:57;;;;;;;19.77;15.95;;;;;;;0.51;100.00;98065.80;1692334;82;21340;-62
2021/03/12 09:44:26;;;;;;;17.10;14.78;;;;;;;0.54;100.00;98071.58;1711983;81;21046;-60
2021/03/12 09:47:05;;;;;;;20.85;16.40;;;;;;;0.58;100.00;98054.61;1739451;81;20910;-61
2021/03/12 09:49:42;;;;;;;19.27;15.35;;;;;;;0.63;100.00;98054.69;1746487;82;21585;-60
2021/03/12 09:52:14;;;;;;;;;;;;;;;0.69;100.00;98054.93;1751439;82;21582;-60
2021/03/12 09:54:45;;;;;;;19.90;16.80;;;;;;;0.73;100.00;98047.63;1748708;80;20145;-60
2021/03/12 09:57:18;;;;;;;17.98;16.02;;;;;;;0.79;100.00;98045.72;1720010;81;21050;-61
2021/03/12 09:59:50;;;;;;;19.20;16.95;;;;;;;0.82;100.00;98048.89;1744375;81;21590;-60
2021/03/12 10:02:33;;;;;;;20.95;18.95;;;;;;;0.91;100.00;98042.80;1811647;76;27918;-60
2021/03/12 10:05:09;;;;;;;20.85;17.65;;;;;;;0.94;100.00;98050.85;1797770;77;21041;-64
2021/03/12 10:08:03;;;;;;;24.37;19.92;;;;;;;1.00;100.00;98049.77;1745509;81;21276;-62
2021/03/12 10:10:34;;;;;;;;;;;;;;;1.06;100.00;98051.83;1746262;81;21697;-61
2021/03/12 10:13:04;;;;;;;19.23;17.12;;;;;;;1.11;100.00;98054.00;1749381;81;20174;-62
2021/03/12 10:15:37;;;;;;;24.82;19.75;;;;;;;1.15;100.00;98051.41;1724157;80;21047;-58
2021/03/12 10:18:27;;;;;;;25.95;20.27;;;;;;;1.20;100.00;98050.02;1839238;78;28624;-61
2021/03/12 10:21:09;;;;;;;28.32;22.42;;;;;;;1.20;100.00;98053.11;1791767;79;21005;-62
2021/03/12 10:23:36;;;;;;;22.70;19.85;;;;;;;1.24;100.00;98052.70;1817887;78;22101;-60
2021/03/12 10:26:06;;;;;;;22.85;19.37;;;;;;;1.25;100.00;98053.53;1812279;79;21041;-60
2021/03/12 10:28:33;;;;;;;20.90;18.40;;;;;;;1.24;100.00;98047.94;1796920;79;20954;-62
2021/03/12 10:31:02;;;;;;;23.10;18.07;;;;;;;1.22;100.00;98046.78;1799384;79;21370;-61
2021/03/12 10:33:32;;;;;;;28.35;19.25;;;;;;;1.23;100.00;98046.27;1808505;79;21462;-61
2021/03/12 10:36:04;;;;;;;22.25;19.40;;;;;;;1.22;100.00;98040.23;1785840;79;21368;-61
2021/03/12 10:38:34;;;;;;;23.85;19.75;;;;;;;1.28;100.00;98041.41;1803011;79;20997;-61
2021/03/12 10:41:18;;;;;;;20.60;18.45;;;;;;;1.33;100.00;98041.00;1742936;81;20975;-61
2021/03/12 10:44:07;;;;;;;19.50;16.75;;;;;;;1.38;100.00;98042.69;1738865;82;20946;-62
2021/03/12 10:46:31;;;;;;;19.75;17.35;;;;;;;1.42;100.00;98039.62;1748601;82;21221;-61
2021/03/12 10:49:01;;;;;;;20.55;18.40;;;;;;;1.45;99.93;98035.88;1758274;80;21370;-62
2021/03/12 10:51:40;;;;;;;17.50;15.53;;;;;;;1.47;99.87;98043.92;1771609;80;21022;-60
2021/03/12 10:54:12;;;;;;;19.37;16.35;;;;;;;1.50;99.79;98036.25;1750151;82;21495;-61
2021/03/12 10:56:47;;;;;;;20.05;16.67;;;;;;;1.53;99.63;98043.83;1773699;80;21500;-60
2021/03/12 10:59:16;;;;;;;18.20;16.30;;;;;;;1.50;99.38;98038.39;1732753;80;21135;-61
2021/03/12 11:01:47;;;;;;;20.02;17.98;;;;;;;1.44;99.25;98038.14;1737493;82;21374;-60
2021/03/12 11:04:16;;;;;;;19.45;17.40;;;;;;;1.40;99.55;98036.81;1743252;81;21065;-60
2021/03/12 11:06:43;;;;;;;20.40;16.45;;;;;;;1.42;99.71;98038.78;1751622;81;20990;-61
2021/03/12 11:09:13;;;;;;;18.07;16.23;;;;;;;1.47;99.64;98037.86;1736319;81;20962;-62
2021/03/12 11:11:43;;;;;;;19.45;17.35;;;;;;;1.48;99.46;98033.80;1749372;81;21100;-59
2021/03/12 11:14:11;;;;;;;18.62;16.20;;;;;;;1.50;99.39;98031.84;1735551;81;21157;-60
2021/03/12 11:16:39;;;;;;;18.42;16.25;;;;;;;1.50;99.33;98029.70;1747278;82;21152;-61
2021/03/12 11:19:07;;;;;;;19.82;17.37;;;;;;;1.52;99.34;98026.44;1759762;80;21103;-62
2021/03/12 11:21:35;;;;;;;17.60;15.83;;;;;;;1.53;99.25;98025.48;1757585;80;21051;-60
2021/03/12 11:24:04;;;;;;;16.42;14.73;;;;;;;1.54;99.22;98032.38;1792733;78;21194;-61
2021/03/12 11:26:31;;;;;;;15.68;14.07;;;;;;;1.57;99.23;98026.81;1816912;78;22339;-61
2021/03/12 11:28:59;;;;;;;15.48;13.95;;;;;;;1.63;99.22;98032.78;1814877;79;21076;-62
2021/03/12 11:31:27;;;;;;;14.07;12.78;;;;;;;1.67;99.13;98032.33;1805639;79;21108;-60
2021/03/12 11:33:55;;;;;;;15.32;13.93;;;;;;;1.70;99.00;98030.72;1813726;78;21024;-61
2021/03/12 11:36:23;;;;;;;14.93;13.15;;;;;;;1.74;98.81;98028.16;1812036;79;21120;-61
2021/03/12 11:38:51;;;;;;;15.55;13.88;;;;;;;1.75;98.60;98025.02;1813014;79;21461;-61
2021/03/12 11:41:19;;;;;;;16.45;14.95;;;;;;;1.75;98.55;98022.40;1812964;79;20938;-60
2021/03/12 11:43:48;;;;;;;16.73;14.90;;;;;;;1.76;98.40;98028.83;1812355;78;20965;-62
2021/03/12 11:46:16;;;;;;;16.97;14.45;;;;;;;1.77;98.34;98024.41;1811444;78;21005;-63